createdAt,value
2018-05-27T00:01:25.852Z,93.70
2018-05-27T00:03:53.919Z,93.70
2018-05-27T00:06:22.000Z,94.00
2018-05-27T00:08:50.817Z,94.20
2018-05-27T00:11:19.054Z,94.10
2018-05-27T00:13:47.109Z,94.10
2018-05-27T00:16:15.916Z,94.10
2018-05-27T00:18:44.000Z,94.10
2018-05-27T00:21:12.150Z,94.30
2018-05-27T00:23:40.244Z,94.40
2018-05-27T00:26:09.044Z,94.30
2018-05-27T00:28:37.121Z,94.50
2018-05-27T00:31:10.224Z,94.60
2018-05-27T00:33:38.268Z,94.80
2018-05-27T00:36:07.205Z,94.70
2018-05-27T00:38:35.248Z,94.50
2018-05-27T00:41:03.304Z,94.50
2018-05-27T00:43:31.348Z,94.20
2018-05-27T00:45:59.403Z,94.00
2018-05-27T00:48:27.489Z,94.20
2018-05-27T00:50:55.607Z,94.10
2018-05-27T00:53:35.444Z,94.10
2018-05-27T00:56:03.549Z,94.00
2018-05-27T00:58:31.576Z,94.20
2018-05-27T01:01:00.244Z,94.40
2018-05-27T01:03:28.307Z,94.50
2018-05-27T01:05:57.121Z,94.70
2018-05-27T01:08:25.246Z,94.70
2018-05-27T01:10:54.106Z,94.70
2018-05-27T01:13:22.213Z,94.70
2018-05-27T01:15:51.122Z,94.80
2018-05-27T01:18:19.165Z,94.80
2018-05-27T01:20:48.056Z,94.90
2018-05-27T01:23:16.159Z,94.90
2018-05-27T01:25:44.838Z,94.90
2018-05-27T01:28:12.920Z,94.90
2018-05-27T01:30:40.982Z,94.80
2018-05-27T01:33:09.020Z,94.90
2018-05-27T01:35:37.836Z,94.40
2018-05-27T01:38:05.877Z,94.40
2018-05-27T01:40:33.984Z,94.50
2018-05-27T01:43:02.035Z,94.70
2018-05-27T01:45:30.848Z,94.70
2018-05-27T01:47:58.892Z,94.70
2018-05-27T01:50:27.791Z,94.60
2018-05-27T01:52:55.805Z,94.60
2018-05-27T01:55:23.860Z,94.70
2018-05-27T01:57:51.914Z,95.00
2018-05-27T02:00:21.841Z,94.80
2018-05-27T02:02:49.889Z,94.80
2018-05-27T02:05:17.974Z,94.50
2018-05-27T02:07:46.018Z,94.10
2018-05-27T02:10:14.069Z,94.50
2018-05-27T02:12:42.112Z,94.60
2018-05-27T02:15:10.188Z,94.70
2018-05-27T02:17:38.245Z,94.80
2018-05-27T02:20:06.303Z,95.10
2018-05-27T02:22:34.374Z,95.00
2018-05-27T02:25:02.397Z,95.30
2018-05-27T02:27:30.457Z,95.10
2018-05-27T02:29:58.500Z,95.10
2018-05-27T02:32:26.553Z,95.10
2018-05-27T02:34:54.593Z,94.90
2018-05-27T02:37:23.412Z,93.90
2018-05-27T02:39:51.440Z,93.90
2018-05-27T02:42:19.496Z,93.60
2018-05-27T02:44:47.545Z,93.40
2018-05-27T02:47:15.593Z,93.00
2018-05-27T02:49:43.628Z,92.70
2018-05-27T02:52:12.448Z,92.40
2018-05-27T02:54:40.484Z,92.40
2018-05-27T02:57:08.542Z,92.10
2018-05-27T02:59:36.581Z,91.90
2018-05-27T03:02:04.630Z,91.80
2018-05-27T03:04:32.672Z,91.70
2018-05-27T03:07:00.722Z,91.70
2018-05-27T03:09:28.767Z,91.60
2018-05-27T03:11:56.820Z,91.60
2018-05-27T03:14:24.872Z,91.50
2018-05-27T03:16:53.033Z,91.50
2018-05-27T03:19:21.123Z,91.50
2018-05-27T03:21:49.257Z,91.50
2018-05-27T03:24:18.085Z,91.50
2018-05-27T03:27:09.437Z,91.50
2018-05-27T03:29:37.476Z,91.60
2018-05-27T03:32:05.527Z,91.60
2018-05-27T03:34:34.331Z,91.50
2018-05-27T03:37:02.388Z,91.50
2018-05-27T03:39:31.195Z,91.30
2018-05-27T03:41:59.247Z,91.30
2018-05-27T03:44:28.045Z,91.20
2018-05-27T03:46:56.100Z,91.20
2018-05-27T03:49:24.977Z,90.90
2018-05-27T03:51:53.178Z,90.90
2018-05-27T03:54:21.220Z,90.90
2018-05-27T03:56:49.353Z,90.10
2018-05-27T03:59:17.377Z,89.80
2018-05-27T04:01:46.322Z,89.90
2018-05-27T04:04:27.190Z,89.70
2018-05-27T04:07:07.002Z,90.00
2018-05-27T04:09:35.867Z,90.00
2018-05-27T04:12:04.201Z,90.00
2018-05-27T04:14:32.260Z,90.10
2018-05-27T04:17:00.314Z,90.20
2018-05-27T04:19:28.361Z,90.20
2018-05-27T04:21:56.401Z,90.50
2018-05-27T04:24:24.458Z,90.50
2018-05-27T04:26:53.367Z,90.70
2018-05-27T04:29:21.400Z,90.70
2018-05-27T04:31:49.452Z,90.50
2018-05-27T04:34:17.496Z,90.60
2018-05-27T04:36:45.540Z,90.30
2018-05-27T04:39:13.585Z,90.40
2018-05-27T04:41:41.616Z,90.40
2018-05-27T04:44:10.440Z,90.40
2018-05-27T04:46:38.475Z,90.40
2018-05-27T04:49:07.292Z,90.30
2018-05-27T04:51:35.341Z,90.30
2018-05-27T04:54:03.396Z,90.50
2018-05-27T04:56:31.436Z,90.40
2018-05-27T04:58:59.501Z,90.30
2018-05-27T05:01:27.528Z,91.20
2018-05-27T05:03:56.356Z,90.90
2018-05-27T05:06:24.392Z,90.90
2018-05-27T05:08:53.209Z,90.80
2018-05-27T05:11:21.263Z,90.80
2018-05-27T05:13:49.312Z,91.20
2018-05-27T05:16:18.123Z,92.40
2018-05-27T05:18:46.169Z,92.40
2018-05-27T05:21:14.975Z,94.00
2018-05-27T05:23:43.021Z,94.00
2018-05-27T05:26:11.876Z,95.40
2018-05-27T05:28:39.911Z,95.40
2018-05-27T05:31:07.964Z,96.20
2018-05-27T05:33:36.782Z,97.30
2018-05-27T05:36:04.840Z,97.30
2018-05-27T05:38:32.886Z,97.60
2018-05-27T05:41:01.693Z,98.30
2018-05-27T05:43:29.745Z,98.30
2018-05-27T05:45:57.790Z,98.70
2018-05-27T05:48:25.836Z,98.80
2018-05-27T05:50:53.885Z,99.10
2018-05-27T05:53:21.932Z,99.20
2018-05-27T05:55:50.745Z,99.50
2018-05-27T05:58:18.801Z,99.50
2018-05-27T06:00:46.841Z,99.80
2018-05-27T06:03:14.896Z,99.90
2018-05-27T06:05:42.928Z,99.90
2018-05-27T06:08:10.980Z,99.90
2018-05-27T06:10:39.020Z,99.90
2018-05-27T06:13:07.177Z,99.90
2018-05-27T06:15:36.886Z,99.90
2018-05-27T06:18:04.927Z,99.90
2018-05-27T06:20:32.989Z,99.90
2018-05-27T06:23:01.033Z,99.90
2018-05-27T06:25:29.860Z,99.90
2018-05-27T06:27:57.904Z,99.90
2018-05-27T06:30:26.720Z,99.90
2018-05-27T06:32:54.766Z,99.90
2018-05-27T06:35:23.635Z,99.90
2018-05-27T06:37:51.676Z,99.90
2018-05-27T06:40:19.960Z,99.90
2018-05-27T06:42:47.976Z,99.90
2018-05-27T06:45:16.016Z,99.90
2018-05-27T06:47:44.056Z,99.80
2018-05-27T06:50:12.104Z,99.40
2018-05-27T06:52:40.150Z,99.00
2018-05-27T06:55:08.964Z,99.20
2018-05-27T06:57:37.000Z,99.20
2018-05-27T07:00:06.526Z,99.10
2018-05-27T07:02:34.806Z,99.10
2018-05-27T07:05:02.812Z,99.10
2018-05-27T07:07:30.856Z,98.60
2018-05-27T07:09:58.922Z,98.70
2018-05-27T07:12:26.956Z,98.40
2018-05-27T07:14:55.782Z,97.90
2018-05-27T07:17:23.820Z,97.60
2018-05-27T07:19:52.647Z,97.40
2018-05-27T07:22:20.685Z,97.40
2018-05-27T07:24:49.495Z,97.10
2018-05-27T07:27:17.546Z,97.10
2018-05-27T07:29:46.374Z,96.60
2018-05-27T07:32:14.445Z,96.60
2018-05-27T07:34:43.228Z,96.70
2018-05-27T07:37:12.030Z,96.80
2018-05-27T07:39:41.451Z,96.60
2018-05-27T07:42:09.653Z,96.50
2018-05-27T07:44:38.473Z,96.40
2018-05-27T07:47:06.634Z,96.40
2018-05-27T07:49:34.684Z,95.90
2018-05-27T07:52:03.497Z,95.30
2018-05-27T07:54:31.548Z,95.30
2018-05-27T07:57:00.373Z,95.10
2018-05-27T07:59:28.406Z,95.10
2018-05-27T08:01:57.208Z,94.70
2018-05-27T08:04:26.015Z,94.30
2018-05-27T08:06:54.060Z,94.30
2018-05-27T08:09:22.883Z,94.90
2018-05-27T08:11:50.905Z,94.90
2018-05-27T08:14:19.712Z,96.10
2018-05-27T08:16:47.756Z,96.10
2018-05-27T08:19:15.793Z,95.90
2018-05-27T08:21:43.850Z,95.60
2018-05-27T08:24:11.886Z,95.10
2018-05-27T08:26:39.928Z,95.20
2018-05-27T08:29:08.150Z,94.60
2018-05-27T08:31:36.209Z,94.60
2018-05-27T08:34:04.241Z,94.60
2018-05-27T08:36:32.284Z,94.10
2018-05-27T08:39:00.464Z,93.70
2018-05-27T08:41:28.518Z,93.70
2018-05-27T08:43:56.558Z,94.20
2018-05-27T08:46:25.383Z,93.70
2018-05-27T08:48:53.423Z,93.70
2018-05-27T08:51:22.236Z,93.30
2018-05-27T08:53:50.282Z,93.30
2018-05-27T08:56:19.101Z,92.70
2018-05-27T08:58:47.141Z,92.80
2018-05-27T09:01:15.265Z,92.70
2018-05-27T09:03:44.028Z,92.00
2018-05-27T09:06:12.905Z,92.70
2018-05-27T09:08:40.914Z,92.70
2018-05-27T09:11:08.961Z,92.30
2018-05-27T09:13:37.000Z,93.00
2018-05-27T09:16:05.052Z,92.90
2018-05-27T09:18:33.084Z,91.70
2018-05-27T09:21:01.129Z,92.30
2018-05-27T09:23:29.180Z,92.00
2018-05-27T09:25:58.037Z,91.30
2018-05-27T09:28:26.079Z,91.30
2018-05-27T09:30:54.185Z,91.00
2018-05-27T09:33:22.164Z,91.20
2018-05-27T09:35:50.220Z,91.20
2018-05-27T09:38:18.267Z,91.10
2018-05-27T09:40:46.308Z,90.80
2018-05-27T09:43:14.352Z,90.60
2018-05-27T09:45:43.173Z,90.60
2018-05-27T09:48:11.245Z,90.60
2018-05-27T09:50:39.295Z,88.20
2018-05-27T09:53:08.114Z,88.90
2018-05-27T09:55:36.160Z,88.90
2018-05-27T09:58:04.241Z,87.80
2018-05-27T10:00:33.044Z,87.50
2018-05-27T10:03:01.100Z,87.40
2018-05-27T10:05:29.145Z,85.30
2018-05-27T10:07:57.969Z,86.30
2018-05-27T10:10:26.030Z,86.10
2018-05-27T10:12:54.111Z,84.30
2018-05-27T10:15:22.925Z,83.50
2018-05-27T10:17:50.985Z,83.40
2018-05-27T10:20:19.032Z,83.80
2018-05-27T10:22:47.436Z,83.00
2018-05-27T10:25:15.480Z,82.80
2018-05-27T10:27:43.537Z,83.40
2018-05-27T10:30:12.362Z,83.00
2018-05-27T10:32:40.410Z,83.00
2018-05-27T10:35:08.456Z,83.00
2018-05-27T10:37:36.542Z,83.30
2018-05-27T10:40:04.544Z,81.90
2018-05-27T10:42:32.596Z,81.90
2018-05-27T10:45:00.633Z,82.70
2018-05-27T10:47:28.683Z,82.00
2018-05-27T10:49:56.745Z,82.60
2018-05-27T10:52:24.801Z,83.10
2018-05-27T10:54:53.046Z,83.20
2018-05-27T10:57:21.099Z,81.70
2018-05-27T10:59:49.927Z,80.00
2018-05-27T11:02:17.949Z,79.90
2018-05-27T11:04:46.776Z,78.50
2018-05-27T11:07:15.012Z,78.50
2018-05-27T11:09:43.087Z,78.00
2018-05-27T11:12:11.295Z,74.10
2018-05-27T11:14:39.366Z,75.90
2018-05-27T11:17:07.460Z,73.10
2018-05-27T11:19:35.539Z,73.20
2018-05-27T11:22:03.560Z,73.90
2018-05-27T11:24:32.539Z,69.50
2018-05-27T11:27:01.378Z,70.60
2018-05-27T11:29:29.404Z,70.70
2018-05-27T11:31:57.525Z,68.80
2018-05-27T11:34:25.599Z,66.80
2018-05-27T11:36:53.723Z,65.20
2018-05-27T11:39:21.780Z,68.20
2018-05-27T11:41:55.339Z,66.10
2018-05-27T11:44:23.352Z,66.10
2018-05-27T11:46:51.403Z,64.50
2018-05-27T11:49:19.488Z,64.70
2018-05-27T11:51:47.552Z,65.20
2018-05-27T11:54:15.671Z,65.40
2018-05-27T11:56:43.740Z,64.50
2018-05-27T11:59:11.840Z,62.30
2018-05-27T12:01:39.921Z,60.20
2018-05-27T12:04:07.954Z,56.90
2018-05-27T12:06:35.997Z,57.20
2018-05-27T12:09:05.805Z,61.70
2018-05-27T12:11:33.726Z,61.70
2018-05-27T12:14:01.816Z,61.80
2018-05-27T12:16:29.873Z,63.80
2018-05-27T12:18:57.916Z,59.70
2018-05-27T12:21:26.001Z,62.20
2018-05-27T12:23:54.048Z,66.00
2018-05-27T12:26:22.856Z,63.30
2018-05-27T12:28:50.941Z,63.20
2018-05-27T12:31:18.980Z,62.30
2018-05-27T12:33:47.174Z,58.90
2018-05-27T12:36:15.200Z,58.10
2018-05-27T12:38:44.244Z,58.60
2018-05-27T12:41:12.256Z,58.50
2018-05-27T12:43:40.317Z,58.60
2018-05-27T12:46:08.401Z,59.00
2018-05-27T12:48:36.457Z,60.00
2018-05-27T12:51:04.552Z,59.50
2018-05-27T12:53:32.585Z,58.80
2018-05-27T12:56:00.623Z,58.80
2018-05-27T12:58:28.720Z,58.50
2018-05-27T13:00:56.766Z,59.40
2018-05-27T13:03:24.857Z,58.50
2018-05-27T13:05:52.868Z,58.20
2018-05-27T13:08:20.913Z,58.70
2018-05-27T13:10:49.004Z,58.30
2018-05-27T13:13:17.040Z,59.40
2018-05-27T13:15:45.090Z,59.40
2018-05-27T13:18:13.161Z,60.60
2018-05-27T13:20:41.949Z,61.10
2018-05-27T13:23:12.011Z,60.90
2018-05-27T13:25:40.175Z,61.70
2018-05-27T13:28:08.338Z,62.90
2018-05-27T13:30:36.370Z,64.30
2018-05-27T13:33:05.208Z,66.20
2018-05-27T13:35:33.261Z,66.20
2018-05-27T13:38:01.554Z,64.80
2018-05-27T13:40:29.577Z,63.40
2018-05-27T13:42:57.621Z,64.30
2018-05-27T13:45:25.836Z,65.40
2018-05-27T13:47:53.873Z,66.40
2018-05-27T13:50:22.755Z,67.80
2018-05-27T13:52:50.800Z,67.30
2018-05-27T13:55:18.896Z,68.10
2018-05-27T13:57:46.933Z,64.90
2018-05-27T14:00:15.253Z,64.10
2018-05-27T14:02:44.644Z,65.60
2018-05-27T14:05:12.732Z,70.40
2018-05-27T14:07:41.547Z,75.10
2018-05-27T14:10:09.985Z,75.10
2018-05-27T14:12:37.964Z,74.80
2018-05-27T14:15:06.009Z,75.20
2018-05-27T14:17:35.071Z,78.50
2018-05-27T14:20:03.121Z,79.30
2018-05-27T14:22:31.158Z,81.80
2018-05-27T14:24:59.253Z,82.20
2018-05-27T14:27:28.092Z,82.50
2018-05-27T14:29:56.133Z,82.50
2018-05-27T14:32:24.177Z,81.80
2018-05-27T14:34:53.005Z,81.40
2018-05-27T14:37:21.090Z,81.30
2018-05-27T14:39:49.669Z,80.70
2018-05-27T14:42:17.704Z,80.50
2018-05-27T14:44:45.754Z,82.50
2018-05-27T14:47:13.977Z,82.20
2018-05-27T14:49:42.016Z,81.40
2018-05-27T14:52:10.881Z,79.40
2018-05-27T14:54:38.934Z,79.30
2018-05-27T14:57:07.015Z,79.20
2018-05-27T14:59:35.711Z,79.30
2018-05-27T15:02:03.785Z,77.90
2018-05-27T15:04:32.564Z,82.40
2018-05-27T15:07:00.621Z,85.00
2018-05-27T15:09:28.669Z,85.10
2018-05-27T15:11:56.813Z,84.50
2018-05-27T15:14:25.653Z,82.20
2018-05-27T15:16:54.440Z,80.60
2018-05-27T15:19:22.532Z,80.50
2018-05-27T15:21:50.583Z,80.70
2018-05-27T15:24:18.670Z,81.70
2018-05-27T15:26:46.728Z,82.60
2018-05-27T15:29:14.779Z,81.40
2018-05-27T15:31:42.851Z,81.20
2018-05-27T15:34:10.900Z,80.60
2018-05-27T15:36:38.960Z,82.00
2018-05-27T15:39:07.003Z,83.40
2018-05-27T15:41:35.051Z,81.80
2018-05-27T15:44:03.148Z,80.30
2018-05-27T15:46:31.209Z,79.80
2018-05-27T15:48:59.355Z,80.30
2018-05-27T15:51:27.616Z,79.10
2018-05-27T15:53:55.683Z,79.30
2018-05-27T15:56:26.052Z,77.00
2018-05-27T15:58:54.096Z,76.90
2018-05-27T16:01:22.173Z,76.60
2018-05-27T16:03:50.218Z,77.00
2018-05-27T16:06:18.264Z,77.20
2018-05-27T16:08:47.088Z,78.50
2018-05-27T16:11:15.164Z,78.50
2018-05-27T16:13:43.213Z,78.90
2018-05-27T16:16:11.317Z,79.20
2018-05-27T16:18:39.327Z,78.90
2018-05-27T16:21:07.376Z,77.90
2018-05-27T16:23:35.428Z,76.60
2018-05-27T16:26:03.479Z,76.50
2018-05-27T16:28:31.662Z,76.30
2018-05-27T16:30:59.731Z,72.20
2018-05-27T16:33:28.508Z,71.90
2018-05-27T16:35:56.621Z,71.90
2018-05-27T16:38:24.664Z,68.00
2018-05-27T16:40:52.716Z,68.60
2018-05-27T16:43:20.753Z,69.30
2018-05-27T16:45:48.930Z,70.10
2018-05-27T16:48:16.933Z,68.40
2018-05-27T16:50:45.220Z,68.70
2018-05-27T16:53:13.233Z,68.30
2018-05-27T16:55:41.312Z,67.70
2018-05-27T16:58:10.152Z,68.00
2018-05-27T17:00:38.228Z,68.00
2018-05-27T17:03:06.296Z,68.50
2018-05-27T17:05:34.349Z,68.60
2018-05-27T17:08:02.388Z,69.00
2018-05-27T17:10:30.456Z,69.00
2018-05-27T17:12:59.326Z,70.80
2018-05-27T17:15:27.436Z,70.00
2018-05-27T17:17:55.476Z,70.20
2018-05-27T17:20:24.485Z,70.80
2018-05-27T17:22:53.289Z,72.40
2018-05-27T17:25:21.344Z,72.40
2018-05-27T17:27:49.439Z,71.80
2018-05-27T17:30:17.480Z,73.20
2018-05-27T17:32:45.608Z,73.90
2018-05-27T17:35:13.647Z,74.70
2018-05-27T17:37:41.700Z,77.00
2018-05-27T17:40:10.527Z,83.40
2018-05-27T17:42:38.560Z,83.40
2018-05-27T17:45:06.585Z,85.20
2018-05-27T17:47:35.621Z,85.90
2018-05-27T17:50:03.654Z,86.50
2018-05-27T17:52:31.716Z,86.80
2018-05-27T17:54:59.768Z,87.30
2018-05-27T17:57:27.852Z,87.40
2018-05-27T17:59:56.623Z,86.80
2018-05-27T18:02:24.683Z,86.70
2018-05-27T18:04:53.505Z,88.20
2018-05-27T18:07:21.573Z,88.20
2018-05-27T18:09:49.657Z,88.80
2018-05-27T18:12:17.756Z,89.70
2018-05-27T18:14:45.804Z,90.30
2018-05-27T18:17:13.867Z,90.30
2018-05-27T18:19:41.959Z,90.80
2018-05-27T18:22:10.000Z,91.20
2018-05-27T18:24:38.089Z,91.60
2018-05-27T18:27:06.132Z,92.00
2018-05-27T18:29:34.186Z,92.30
2018-05-27T18:32:02.240Z,92.50
2018-05-27T18:34:30.292Z,92.80
2018-05-27T18:36:58.340Z,93.20
2018-05-27T18:39:26.442Z,93.10
2018-05-27T18:41:55.521Z,93.40
2018-05-27T18:44:23.564Z,93.70
2018-05-27T18:46:52.663Z,93.90
2018-05-27T18:49:21.457Z,94.10
2018-05-27T18:51:49.505Z,94.10
2018-05-27T18:54:17.568Z,94.20
2018-05-27T18:56:46.364Z,94.40
2018-05-27T18:59:14.445Z,94.40
2018-05-27T19:01:42.493Z,94.60
2018-05-27T19:04:10.529Z,94.70
2018-05-27T19:06:39.260Z,95.20
2018-05-27T19:09:07.342Z,95.30
2018-05-27T19:11:36.120Z,95.20
2018-05-27T19:14:04.157Z,95.20
2018-05-27T19:16:33.030Z,95.60
2018-05-27T19:19:01.052Z,95.60
2018-05-27T19:21:29.133Z,95.90
2018-05-27T19:23:57.179Z,96.10
2018-05-27T19:26:25.232Z,96.20
2018-05-27T19:28:54.077Z,96.30
2018-05-27T19:31:22.116Z,96.30
2018-05-27T19:33:50.187Z,96.70
2018-05-27T19:36:18.240Z,96.60
2018-05-27T19:38:47.084Z,96.80
2018-05-27T19:41:15.118Z,96.80
2018-05-27T19:43:43.252Z,96.80
2018-05-27T19:46:11.279Z,96.90
2018-05-27T19:48:39.356Z,96.90
2018-05-27T19:51:07.385Z,97.20
2018-05-27T19:53:36.211Z,97.50
2018-05-27T19:56:04.266Z,97.50
2018-05-27T19:58:32.343Z,97.80
2018-05-27T20:01:00.441Z,97.90
2018-05-27T20:03:28.479Z,97.90
2018-05-27T20:05:57.268Z,97.80
2018-05-27T20:08:25.312Z,97.80
2018-05-27T20:10:54.500Z,97.70
2018-05-27T20:13:22.551Z,97.80
2018-05-27T20:15:51.235Z,97.70
2018-05-27T20:18:19.312Z,97.80
2018-05-27T20:20:47.361Z,97.90
2018-05-27T20:23:15.441Z,97.80
2018-05-27T20:25:43.532Z,97.60
2018-05-27T20:28:11.592Z,97.70
2018-05-27T20:30:39.847Z,97.70
2018-05-27T20:33:07.889Z,97.90
2018-05-27T20:35:36.054Z,98.00
2018-05-27T20:38:04.173Z,97.90
2018-05-27T20:40:32.492Z,97.90
2018-05-27T20:43:01.475Z,97.90
2018-05-27T20:45:30.296Z,98.00
2018-05-27T20:47:58.411Z,98.00
2018-05-27T20:50:26.477Z,97.80
2018-05-27T20:52:54.545Z,97.90
2018-05-27T20:55:22.599Z,98.00
2018-05-27T20:57:50.648Z,97.90
2018-05-27T21:00:18.704Z,98.00
2018-05-27T21:02:46.767Z,98.00
2018-05-27T21:05:15.596Z,98.10
2018-05-27T21:07:43.636Z,98.10
2018-05-27T21:10:12.492Z,98.20
2018-05-27T21:12:40.545Z,98.20
2018-05-27T21:15:08.598Z,98.30
2018-05-27T21:17:36.662Z,98.40
2018-05-27T21:20:04.705Z,98.30
2018-05-27T21:22:33.583Z,98.40
2018-05-27T21:25:01.584Z,98.40
2018-05-27T21:27:29.621Z,98.30
2018-05-27T21:29:58.493Z,98.30
2018-05-27T21:32:26.540Z,98.20
2018-05-27T21:34:54.688Z,98.30
2018-05-27T21:37:22.742Z,98.30
2018-05-27T21:39:50.792Z,98.50
2018-05-27T21:42:18.846Z,97.80
2018-05-27T21:44:46.905Z,97.50
2018-05-27T21:47:14.980Z,97.80
2018-05-27T21:49:43.067Z,98.10
2018-05-27T21:52:11.141Z,98.20
2018-05-27T21:54:39.205Z,98.10
2018-05-27T21:57:07.279Z,98.10
2018-05-27T21:59:35.348Z,97.70
2018-05-27T22:02:03.416Z,96.90
2018-05-27T22:04:31.476Z,97.00
2018-05-27T22:07:01.703Z,97.30
2018-05-27T22:09:30.764Z,97.90
2018-05-27T22:11:58.774Z,97.90
2018-05-27T22:14:26.853Z,97.90
2018-05-27T22:16:54.905Z,97.80
2018-05-27T22:19:22.956Z,97.90
2018-05-27T22:21:51.021Z,97.70
2018-05-27T22:24:19.152Z,97.90
2018-05-27T22:26:47.209Z,98.00
2018-05-27T22:29:15.255Z,97.80
2018-05-27T22:31:43.320Z,97.60
2018-05-27T22:34:11.369Z,97.80
2018-05-27T22:36:39.417Z,97.90
2018-05-27T22:39:07.480Z,98.10
2018-05-27T22:41:36.343Z,98.20
2018-05-27T22:44:04.397Z,98.20
2018-05-27T22:46:32.458Z,98.20
2018-05-27T22:49:00.617Z,98.20
2018-05-27T22:51:29.452Z,97.80
2018-05-27T22:53:57.510Z,97.80
2018-05-27T22:56:25.557Z,97.70
2018-05-27T22:58:53.647Z,98.00
2018-05-27T23:01:21.721Z,98.10
2018-05-27T23:03:49.807Z,98.10
2018-05-27T23:06:17.836Z,98.20
2018-05-27T23:08:45.943Z,98.50
2018-05-27T23:11:13.985Z,98.70
2018-05-27T23:13:42.041Z,99.00
2018-05-27T23:16:10.080Z,99.20
2018-05-27T23:18:38.897Z,99.20
2018-05-27T23:21:06.946Z,99.20
2018-05-27T23:23:35.797Z,99.00
2018-05-27T23:26:03.840Z,99.00
2018-05-27T23:28:32.737Z,99.50
2018-05-27T23:31:00.768Z,99.80
2018-05-27T23:33:29.585Z,99.90
2018-05-27T23:35:57.694Z,99.90
2018-05-27T23:38:25.718Z,99.90
2018-05-27T23:40:53.768Z,99.90
2018-05-27T23:43:22.576Z,99.90
2018-05-27T23:45:50.686Z,99.90
2018-05-27T23:48:18.739Z,99.90
2018-05-27T23:50:46.820Z,99.90
2018-05-27T23:53:14.889Z,99.90
2018-05-27T23:55:42.968Z,99.90
2018-05-27T23:58:11.013Z,99.90
